sensor_id;sensor_type;location;lat;lon;timestamp;P1;durP1;ratioP1;P2;durP2;ratioP2
74177;SDS011;62540;48.456;-4.456;2023-07-22T00:01:32;4.00;;;3.25;;
74177;SDS011;62540;48.456;-4.456;2023-07-22T00:03:57;4.00;;;3.00;;
74177;SDS011;62540;48.456;-4.456;2023-07-22T00:06:23;3.50;;;3.50;;
74177;SDS011;62540;48.456;-4.456;2023-07-22T00:08:49;4.00;;;3.25;;
74177;SDS011;62540;48.456;-4.456;2023-07-22T00:11:15;4.00;;;3.25;;
74177;SDS011;62540;48.456;-4.456;2023-07-22T00:13:41;4.00;;;4.00;;
74177;SDS011;62540;48.456;-4.456;2023-07-22T00:16:08;4.75;;;4.25;;
74177;SDS011;62540;48.456;-4.456;2023-07-22T00:18:35;4.00;;;3.25;;
74177;SDS011;62540;48.456;-4.456;2023-07-22T00:21:01;4.00;;;4.00;;
74177;SDS011;62540;48.456;-4.456;2023-07-22T00:23:27;4.25;;;4.00;;
74177;SDS011;62540;48.456;-4.456;2023-07-22T00:25:52;8.00;;;4.50;;
74177;SDS011;62540;48.456;-4.456;2023-07-22T00:28:17;7.00;;;4.00;;
74177;SDS011;62540;48.456;-4.456;2023-07-22T00:30:43;4.00;;;3.25;;
74177;SDS011;62540;48.456;-4.456;2023-07-22T00:33:09;4.25;;;4.25;;
74177;SDS011;62540;48.456;-4.456;2023-07-22T00:35:34;6.00;;;4.00;;
74177;SDS011;62540;48.456;-4.456;2023-07-22T00:38:00;5.00;;;4.25;;
74177;SDS011;62540;48.456;-4.456;2023-07-22T00:40:26;6.00;;;4.50;;
74177;SDS011;62540;48.456;-4.456;2023-07-22T00:42:52;4.00;;;4.00;;
74177;SDS011;62540;48.456;-4.456;2023-07-22T00:45:17;4.25;;;3.75;;
74177;SDS011;62540;48.456;-4.456;2023-07-22T00:47:43;3.25;;;3.25;;
74177;SDS011;62540;48.456;-4.456;2023-07-22T00:50:09;6.25;;;4.75;;
74177;SDS011;62540;48.456;-4.456;2023-07-22T00:52:35;3.75;;;3.50;;
74177;SDS011;62540;48.456;-4.456;2023-07-22T00:55:01;3.75;;;3.00;;
74177;SDS011;62540;48.456;-4.456;2023-07-22T00:57:27;4.00;;;3.75;;
74177;SDS011;62540;48.456;-4.456;2023-07-22T00:59:53;4.00;;;3.00;;
74177;SDS011;62540;48.456;-4.456;2023-07-22T01:02:19;2.00;;;2.00;;
74177;SDS011;62540;48.456;-4.456;2023-07-22T01:04:45;5.00;;;4.00;;
74177;SDS011;62540;48.456;-4.456;2023-07-22T01:07:11;5.25;;;3.25;;
74177;SDS011;62540;48.456;-4.456;2023-07-22T01:09:38;3.00;;;3.00;;
74177;SDS011;62540;48.456;-4.456;2023-07-22T01:12:04;4.25;;;3.25;;
74177;SDS011;62540;48.456;-4.456;2023-07-22T01:14:33;3.00;;;2.00;;
74177;SDS011;62540;48.456;-4.456;2023-07-22T01:17:04;5.00;;;3.50;;
74177;SDS011;62540;48.456;-4.456;2023-07-22T01:19:32;3.00;;;3.00;;
74177;SDS011;62540;48.456;-4.456;2023-07-22T01:21:59;3.50;;;2.50;;
74177;SDS011;62540;48.456;-4.456;2023-07-22T01:24:27;3.00;;;2.25;;
74177;SDS011;62540;48.456;-4.456;2023-07-22T01:26:53;3.00;;;3.00;;
74177;SDS011;62540;48.456;-4.456;2023-07-22T01:29:19;2.75;;;2.75;;
74177;SDS011;62540;48.456;-4.456;2023-07-22T01:31:48;2.00;;;2.00;;
74177;SDS011;62540;48.456;-4.456;2023-07-22T01:34:15;4.25;;;3.00;;
74177;SDS011;62540;48.456;-4.456;2023-07-22T01:36:40;1.00;;;1.00;;
74177;SDS011;62540;48.456;-4.456;2023-07-22T01:39:05;2.25;;;2.25;;
74177;SDS011;62540;48.456;-4.456;2023-07-22T01:41:31;2.00;;;2.00;;
74177;SDS011;62540;48.456;-4.456;2023-07-22T01:43:56;2.75;;;2.00;;
74177;SDS011;62540;48.456;-4.456;2023-07-22T01:46:22;1.00;;;1.00;;
74177;SDS011;62540;48.456;-4.456;2023-07-22T01:48:47;3.00;;;1.50;;
74177;SDS011;62540;48.456;-4.456;2023-07-22T01:51:13;3.25;;;2.25;;
74177;SDS011;62540;48.456;-4.456;2023-07-22T01:53:38;2.00;;;2.00;;
74177;SDS011;62540;48.456;-4.456;2023-07-22T01:56:03;1.00;;;1.00;;
74177;SDS011;62540;48.456;-4.456;2023-07-22T01:58:30;3.00;;;2.75;;
74177;SDS011;62540;48.456;-4.456;2023-07-22T02:00:55;2.00;;;1.50;;
74177;SDS011;62540;48.456;-4.456;2023-07-22T02:03:21;3.00;;;1.25;;
74177;SDS011;62540;48.456;-4.456;2023-07-22T02:05:46;2.25;;;2.00;;
74177;SDS011;62540;48.456;-4.456;2023-07-22T02:08:12;2.00;;;1.00;;
74177;SDS011;62540;48.456;-4.456;2023-07-22T02:10:37;2.00;;;2.00;;
74177;SDS011;62540;48.456;-4.456;2023-07-22T02:13:02;2.00;;;2.00;;
74177;SDS011;62540;48.456;-4.456;2023-07-22T02:15:29;2.00;;;1.00;;
74177;SDS011;62540;48.456;-4.456;2023-07-22T02:17:57;2.25;;;2.00;;
74177;SDS011;62540;48.456;-4.456;2023-07-22T02:20:22;3.00;;;2.00;;
74177;SDS011;62540;48.456;-4.456;2023-07-22T02:22:47;2.50;;;2.00;;
74177;SDS011;62540;48.456;-4.456;2023-07-22T02:25:13;3.00;;;2.00;;
74177;SDS011;62540;48.456;-4.456;2023-07-22T02:27:40;1.25;;;1.00;;
74177;SDS011;62540;48.456;-4.456;2023-07-22T02:30:06;3.00;;;2.00;;
74177;SDS011;62540;48.456;-4.456;2023-07-22T02:32:38;1.00;;;1.00;;
74177;SDS011;62540;48.456;-4.456;2023-07-22T02:35:05;1.00;;;1.00;;
74177;SDS011;62540;48.456;-4.456;2023-07-22T02:37:32;2.50;;;2.00;;
74177;SDS011;62540;48.456;-4.456;2023-07-22T02:39:57;1.25;;;1.25;;
74177;SDS011;62540;48.456;-4.456;2023-07-22T02:42:23;1.50;;;1.25;;
74177;SDS011;62540;48.456;-4.456;2023-07-22T02:44:48;1.75;;;1.75;;
74177;SDS011;62540;48.456;-4.456;2023-07-22T02:47:13;3.00;;;2.00;;
74177;SDS011;62540;48.456;-4.456;2023-07-22T02:49:39;2.00;;;2.00;;
74177;SDS011;62540;48.456;-4.456;2023-07-22T02:52:04;1.00;;;1.00;;
74177;SDS011;62540;48.456;-4.456;2023-07-22T02:54:31;2.00;;;1.50;;
74177;SDS011;62540;48.456;-4.456;2023-07-22T02:56:57;2.75;;;2.75;;
74177;SDS011;62540;48.456;-4.456;2023-07-22T02:59:22;2.00;;;1.75;;
74177;SDS011;62540;48.456;-4.456;2023-07-22T03:01:49;2.25;;;2.25;;
74177;SDS011;62540;48.456;-4.456;2023-07-22T03:04:14;2.50;;;1.00;;
74177;SDS011;62540;48.456;-4.456;2023-07-22T03:06:40;3.00;;;3.00;;
74177;SDS011;62540;48.456;-4.456;2023-07-22T03:09:07;3.25;;;2.50;;
74177;SDS011;62540;48.456;-4.456;2023-07-22T03:11:32;2.00;;;2.00;;
74177;SDS011;62540;48.456;-4.456;2023-07-22T03:13:59;3.50;;;2.00;;
74177;SDS011;62540;48.456;-4.456;2023-07-22T03:16:24;2.00;;;2.00;;
74177;SDS011;62540;48.456;-4.456;2023-07-22T03:18:50;4.50;;;3.00;;
74177;SDS011;62540;48.456;-4.456;2023-07-22T03:21:15;4.00;;;2.00;;
74177;SDS011;62540;48.456;-4.456;2023-07-22T03:23:41;2.50;;;2.50;;
74177;SDS011;62540;48.456;-4.456;2023-07-22T03:26:06;4.00;;;3.75;;
74177;SDS011;62540;48.456;-4.456;2023-07-22T03:28:31;2.00;;;1.75;;
74177;SDS011;62540;48.456;-4.456;2023-07-22T03:30:57;2.00;;;2.00;;
74177;SDS011;62540;48.456;-4.456;2023-07-22T03:33:22;3.00;;;3.00;;
74177;SDS011;62540;48.456;-4.456;2023-07-22T03:35:48;4.25;;;4.00;;
74177;SDS011;62540;48.456;-4.456;2023-07-22T03:38:13;3.75;;;2.75;;
74177;SDS011;62540;48.456;-4.456;2023-07-22T03:40:38;2.00;;;2.00;;
74177;SDS011;62540;48.456;-4.456;2023-07-22T03:43:04;3.00;;;2.25;;
74177;SDS011;62540;48.456;-4.456;2023-07-22T03:45:30;4.00;;;3.00;;
74177;SDS011;62540;48.456;-4.456;2023-07-22T03:47:59;4.00;;;3.00;;
74177;SDS011;62540;48.456;-4.456;2023-07-22T03:50:25;3.75;;;3.25;;
74177;SDS011;62540;48.456;-4.456;2023-07-22T03:52:51;4.75;;;4.00;;
74177;SDS011;62540;48.456;-4.456;2023-07-22T03:55:17;6.00;;;4.00;;
74177;SDS011;62540;48.456;-4.456;2023-07-22T03:57:44;4.75;;;3.50;;
74177;SDS011;62540;48.456;-4.456;2023-07-22T04:00:10;4.00;;;4.00;;
74177;SDS011;62540;48.456;-4.456;2023-07-22T04:02:36;2.50;;;2.50;;
74177;SDS011;62540;48.456;-4.456;2023-07-22T04:05:02;2.75;;;2.75;;
74177;SDS011;62540;48.456;-4.456;2023-07-22T04:07:27;6.25;;;3.75;;
74177;SDS011;62540;48.456;-4.456;2023-07-22T04:09:53;7.00;;;4.50;;
74177;SDS011;62540;48.456;-4.456;2023-07-22T04:12:18;4.50;;;3.25;;
74177;SDS011;62540;48.456;-4.456;2023-07-22T04:14:43;4.50;;;3.25;;
74177;SDS011;62540;48.456;-4.456;2023-07-22T04:17:09;4.50;;;3.00;;
74177;SDS011;62540;48.456;-4.456;2023-07-22T04:19:34;4.75;;;4.75;;
74177;SDS011;62540;48.456;-4.456;2023-07-22T04:22:00;7.50;;;6.25;;
74177;SDS011;62540;48.456;-4.456;2023-07-22T04:24:29;6.25;;;4.75;;
74177;SDS011;62540;48.456;-4.456;2023-07-22T04:26:56;6.00;;;5.25;;
74177;SDS011;62540;48.456;-4.456;2023-07-22T04:29:21;4.00;;;4.00;;
74177;SDS011;62540;48.456;-4.456;2023-07-22T04:31:47;4.25;;;4.25;;
74177;SDS011;62540;48.456;-4.456;2023-07-22T04:34:12;2.25;;;2.25;;
74177;SDS011;62540;48.456;-4.456;2023-07-22T04:36:38;3.00;;;3.00;;
74177;SDS011;62540;48.456;-4.456;2023-07-22T04:39:03;5.75;;;4.75;;
74177;SDS011;62540;48.456;-4.456;2023-07-22T04:41:32;4.25;;;4.25;;
74177;SDS011;62540;48.456;-4.456;2023-07-22T04:43:58;9.75;;;6.50;;
74177;SDS011;62540;48.456;-4.456;2023-07-22T04:46:23;7.25;;;6.25;;
74177;SDS011;62540;48.456;-4.456;2023-07-22T04:48:50;8.50;;;6.00;;
74177;SDS011;62540;48.456;-4.456;2023-07-22T04:51:16;6.00;;;4.00;;
74177;SDS011;62540;48.456;-4.456;2023-07-22T04:53:41;5.00;;;4.50;;
74177;SDS011;62540;48.456;-4.456;2023-07-22T04:56:06;5.25;;;5.00;;
74177;SDS011;62540;48.456;-4.456;2023-07-22T04:58:32;8.25;;;6.25;;
74177;SDS011;62540;48.456;-4.456;2023-07-22T05:00:57;6.25;;;6.25;;
74177;SDS011;62540;48.456;-4.456;2023-07-22T05:03:23;5.50;;;5.50;;
74177;SDS011;62540;48.456;-4.456;2023-07-22T05:05:50;5.50;;;4.75;;
74177;SDS011;62540;48.456;-4.456;2023-07-22T05:08:15;5.00;;;4.00;;
74177;SDS011;62540;48.456;-4.456;2023-07-22T05:10:41;4.75;;;3.75;;
74177;SDS011;62540;48.456;-4.456;2023-07-22T05:13:06;3.25;;;3.25;;
74177;SDS011;62540;48.456;-4.456;2023-07-22T05:15:31;4.00;;;4.00;;
74177;SDS011;62540;48.456;-4.456;2023-07-22T05:17:57;5.25;;;3.75;;
74177;SDS011;62540;48.456;-4.456;2023-07-22T05:20:22;6.00;;;5.00;;
74177;SDS011;62540;48.456;-4.456;2023-07-22T05:22:48;5.75;;;5.50;;
74177;SDS011;62540;48.456;-4.456;2023-07-22T05:25:14;7.50;;;5.25;;
74177;SDS011;62540;48.456;-4.456;2023-07-22T05:27:39;5.00;;;4.00;;
74177;SDS011;62540;48.456;-4.456;2023-07-22T05:30:05;4.50;;;4.00;;
74177;SDS011;62540;48.456;-4.456;2023-07-22T05:32:31;4.75;;;4.75;;
74177;SDS011;62540;48.456;-4.456;2023-07-22T05:34:57;4.75;;;4.75;;
74177;SDS011;62540;48.456;-4.456;2023-07-22T05:37:23;7.25;;;4.25;;
74177;SDS011;62540;48.456;-4.456;2023-07-22T05:39:48;4.00;;;3.75;;
74177;SDS011;62540;48.456;-4.456;2023-07-22T05:42:14;4.75;;;4.00;;
74177;SDS011;62540;48.456;-4.456;2023-07-22T05:44:39;4.75;;;4.50;;
74177;SDS011;62540;48.456;-4.456;2023-07-22T05:47:05;5.00;;;5.00;;
74177;SDS011;62540;48.456;-4.456;2023-07-22T05:49:30;2.50;;;1.75;;
74177;SDS011;62540;48.456;-4.456;2023-07-22T05:51:56;5.00;;;3.00;;
74177;SDS011;62540;48.456;-4.456;2023-07-22T05:54:21;4.25;;;4.25;;
74177;SDS011;62540;48.456;-4.456;2023-07-22T05:56:46;5.00;;;3.50;;
74177;SDS011;62540;48.456;-4.456;2023-07-22T05:59:12;6.25;;;4.00;;
74177;SDS011;62540;48.456;-4.456;2023-07-22T06:01:37;4.75;;;3.00;;
74177;SDS011;62540;48.456;-4.456;2023-07-22T06:04:03;4.25;;;3.75;;
74177;SDS011;62540;48.456;-4.456;2023-07-22T06:06:29;4.00;;;3.75;;
74177;SDS011;62540;48.456;-4.456;2023-07-22T06:08:54;3.25;;;2.25;;
74177;SDS011;62540;48.456;-4.456;2023-07-22T06:11:20;3.25;;;3.00;;
74177;SDS011;62540;48.456;-4.456;2023-07-22T06:13:46;3.75;;;3.75;;
74177;SDS011;62540;48.456;-4.456;2023-07-22T06:16:11;3.50;;;2.75;;
74177;SDS011;62540;48.456;-4.456;2023-07-22T06:18:37;2.00;;;2.00;;
74177;SDS011;62540;48.456;-4.456;2023-07-22T06:21:02;2.00;;;2.00;;
74177;SDS011;62540;48.456;-4.456;2023-07-22T06:23:28;4.00;;;3.00;;
74177;SDS011;62540;48.456;-4.456;2023-07-22T06:25:53;3.00;;;2.00;;
74177;SDS011;62540;48.456;-4.456;2023-07-22T06:28:19;2.00;;;2.00;;
74177;SDS011;62540;48.456;-4.456;2023-07-22T06:30:44;4.00;;;3.25;;
74177;SDS011;62540;48.456;-4.456;2023-07-22T06:33:09;4.00;;;3.25;;
74177;SDS011;62540;48.456;-4.456;2023-07-22T06:35:35;2.25;;;2.00;;
74177;SDS011;62540;48.456;-4.456;2023-07-22T06:38:00;3.00;;;3.00;;
74177;SDS011;62540;48.456;-4.456;2023-07-22T06:40:26;2.00;;;2.00;;
74177;SDS011;62540;48.456;-4.456;2023-07-22T06:42:51;3.00;;;2.00;;
74177;SDS011;62540;48.456;-4.456;2023-07-22T06:45:16;3.00;;;2.00;;
74177;SDS011;62540;48.456;-4.456;2023-07-22T06:47:42;3.00;;;2.50;;
74177;SDS011;62540;48.456;-4.456;2023-07-22T06:50:09;2.00;;;2.00;;
74177;SDS011;62540;48.456;-4.456;2023-07-22T06:52:34;3.00;;;2.00;;
74177;SDS011;62540;48.456;-4.456;2023-07-22T06:55:00;2.75;;;2.25;;
74177;SDS011;62540;48.456;-4.456;2023-07-22T06:57:25;2.25;;;2.00;;
74177;SDS011;62540;48.456;-4.456;2023-07-22T06:59:53;3.75;;;2.75;;
74177;SDS011;62540;48.456;-4.456;2023-07-22T07:02:19;3.00;;;2.75;;
74177;SDS011;62540;48.456;-4.456;2023-07-22T07:04:45;2.00;;;2.00;;
74177;SDS011;62540;48.456;-4.456;2023-07-22T07:07:10;4.00;;;2.50;;
74177;SDS011;62540;48.456;-4.456;2023-07-22T07:09:37;5.75;;;4.00;;
74177;SDS011;62540;48.456;-4.456;2023-07-22T07:12:03;3.75;;;3.25;;
74177;SDS011;62540;48.456;-4.456;2023-07-22T07:14:28;4.50;;;3.25;;
74177;SDS011;62540;48.456;-4.456;2023-07-22T07:16:54;3.00;;;3.00;;
74177;SDS011;62540;48.456;-4.456;2023-07-22T07:19:19;6.00;;;4.25;;
74177;SDS011;62540;48.456;-4.456;2023-07-22T07:21:45;3.00;;;3.00;;
74177;SDS011;62540;48.456;-4.456;2023-07-22T07:24:10;5.25;;;3.25;;
74177;SDS011;62540;48.456;-4.456;2023-07-22T07:26:35;4.75;;;4.50;;
74177;SDS011;62540;48.456;-4.456;2023-07-22T07:29:01;5.50;;;5.00;;
74177;SDS011;62540;48.456;-4.456;2023-07-22T07:31:26;4.00;;;4.00;;
74177;SDS011;62540;48.456;-4.456;2023-07-22T07:33:52;6.00;;;5.25;;
74177;SDS011;62540;48.456;-4.456;2023-07-22T07:36:18;5.75;;;5.25;;
74177;SDS011;62540;48.456;-4.456;2023-07-22T07:38:43;5.75;;;5.00;;
74177;SDS011;62540;48.456;-4.456;2023-07-22T07:41:09;5.50;;;5.50;;
74177;SDS011;62540;48.456;-4.456;2023-07-22T07:43:36;4.00;;;4.00;;
74177;SDS011;62540;48.456;-4.456;2023-07-22T07:46:15;6.00;;;5.00;;
74177;SDS011;62540;48.456;-4.456;2023-07-22T07:48:43;3.75;;;2.25;;
74177;SDS011;62540;48.456;-4.456;2023-07-22T07:51:10;6.00;;;5.50;;
74177;SDS011;62540;48.456;-4.456;2023-07-22T07:53:37;4.75;;;4.75;;
74177;SDS011;62540;48.456;-4.456;2023-07-22T07:56:02;6.00;;;5.00;;
74177;SDS011;62540;48.456;-4.456;2023-07-22T07:58:28;4.75;;;3.75;;
74177;SDS011;62540;48.456;-4.456;2023-07-22T08:00:53;4.00;;;4.00;;
74177;SDS011;62540;48.456;-4.456;2023-07-22T08:03:18;5.00;;;4.00;;
74177;SDS011;62540;48.456;-4.456;2023-07-22T08:05:44;7.50;;;5.75;;
74177;SDS011;62540;48.456;-4.456;2023-07-22T08:08:09;4.50;;;4.00;;
74177;SDS011;62540;48.456;-4.456;2023-07-22T08:10:35;4.00;;;4.00;;
74177;SDS011;62540;48.456;-4.456;2023-07-22T08:13:00;4.75;;;4.75;;
74177;SDS011;62540;48.456;-4.456;2023-07-22T08:15:27;6.25;;;5.25;;
74177;SDS011;62540;48.456;-4.456;2023-07-22T08:17:53;5.00;;;5.00;;
74177;SDS011;62540;48.456;-4.456;2023-07-22T08:20:18;5.50;;;5.00;;
74177;SDS011;62540;48.456;-4.456;2023-07-22T08:22:44;7.00;;;3.00;;
74177;SDS011;62540;48.456;-4.456;2023-07-22T08:25:09;7.00;;;5.75;;
74177;SDS011;62540;48.456;-4.456;2023-07-22T08:27:35;7.25;;;6.00;;
74177;SDS011;62540;48.456;-4.456;2023-07-22T08:30:00;8.00;;;6.50;;
74177;SDS011;62540;48.456;-4.456;2023-07-22T08:32:25;6.75;;;6.75;;
74177;SDS011;62540;48.456;-4.456;2023-07-22T08:34:51;7.00;;;6.50;;
74177;SDS011;62540;48.456;-4.456;2023-07-22T08:37:16;6.50;;;6.25;;
74177;SDS011;62540;48.456;-4.456;2023-07-22T08:39:41;7.00;;;7.00;;
74177;SDS011;62540;48.456;-4.456;2023-07-22T08:42:07;8.00;;;5.75;;
74177;SDS011;62540;48.456;-4.456;2023-07-22T08:44:34;7.75;;;7.00;;
74177;SDS011;62540;48.456;-4.456;2023-07-22T08:47:05;9.00;;;7.00;;
74177;SDS011;62540;48.456;-4.456;2023-07-22T08:49:37;8.25;;;7.50;;
74177;SDS011;62540;48.456;-4.456;2023-07-22T08:52:05;6.50;;;6.25;;
74177;SDS011;62540;48.456;-4.456;2023-07-22T08:54:31;7.75;;;7.25;;
74177;SDS011;62540;48.456;-4.456;2023-07-22T08:56:58;8.75;;;8.00;;
74177;SDS011;62540;48.456;-4.456;2023-07-22T08:59:24;6.25;;;6.25;;
74177;SDS011;62540;48.456;-4.456;2023-07-22T09:01:50;8.00;;;8.00;;
74177;SDS011;62540;48.456;-4.456;2023-07-22T09:04:17;8.00;;;8.00;;
74177;SDS011;62540;48.456;-4.456;2023-07-22T09:06:44;8.25;;;8.25;;
74177;SDS011;62540;48.456;-4.456;2023-07-22T09:09:10;9.25;;;8.25;;
74177;SDS011;62540;48.456;-4.456;2023-07-22T09:11:36;12.00;;;10.00;;
74177;SDS011;62540;48.456;-4.456;2023-07-22T09:14:03;14.00;;;12.75;;
74177;SDS011;62540;48.456;-4.456;2023-07-22T09:16:30;11.00;;;9.50;;
74177;SDS011;62540;48.456;-4.456;2023-07-22T09:18:59;11.75;;;8.00;;
74177;SDS011;62540;48.456;-4.456;2023-07-22T09:21:25;10.25;;;9.00;;
74177;SDS011;62540;48.456;-4.456;2023-07-22T09:23:50;10.00;;;8.75;;
74177;SDS011;62540;48.456;-4.456;2023-07-22T09:26:16;10.25;;;9.00;;
74177;SDS011;62540;48.456;-4.456;2023-07-22T09:28:49;8.50;;;7.50;;
74177;SDS011;62540;48.456;-4.456;2023-07-22T09:31:23;9.25;;;9.25;;
74177;SDS011;62540;48.456;-4.456;2023-07-22T09:33:53;8.50;;;8.50;;
74177;SDS011;62540;48.456;-4.456;2023-07-22T09:36:21;10.25;;;7.75;;
74177;SDS011;62540;48.456;-4.456;2023-07-22T09:39:00;14.00;;;11.00;;
74177;SDS011;62540;48.456;-4.456;2023-07-22T09:41:28;10.75;;;9.25;;
74177;SDS011;62540;48.456;-4.456;2023-07-22T09:43:57;10.25;;;10.00;;
74177;SDS011;62540;48.456;-4.456;2023-07-22T09:46:30;7.25;;;7.25;;
74177;SDS011;62540;48.456;-4.456;2023-07-22T09:49:01;12.00;;;9.00;;
74177;SDS011;62540;48.456;-4.456;2023-07-22T09:51:32;10.50;;;9.50;;
74177;SDS011;62540;48.456;-4.456;2023-07-22T09:54:02;12.75;;;11.00;;
74177;SDS011;62540;48.456;-4.456;2023-07-22T09:56:28;9.25;;;8.50;;
74177;SDS011;62540;48.456;-4.456;2023-07-22T09:58:54;12.50;;;10.50;;
74177;SDS011;62540;48.456;-4.456;2023-07-22T10:01:20;9.25;;;8.25;;
74177;SDS011;62540;48.456;-4.456;2023-07-22T10:03:58;10.50;;;9.75;;
74177;SDS011;62540;48.456;-4.456;2023-07-22T10:06:27;11.50;;;9.75;;
74177;SDS011;62540;48.456;-4.456;2023-07-22T10:09:04;9.00;;;7.75;;
74177;SDS011;62540;48.456;-4.456;2023-07-22T10:11:32;8.25;;;8.25;;
74177;SDS011;62540;48.456;-4.456;2023-07-22T10:14:04;9.50;;;8.50;;
74177;SDS011;62540;48.456;-4.456;2023-07-22T10:16:30;11.75;;;11.25;;
74177;SDS011;62540;48.456;-4.456;2023-07-22T10:18:56;8.75;;;8.25;;
74177;SDS011;62540;48.456;-4.456;2023-07-22T10:21:23;10.25;;;9.00;;
74177;SDS011;62540;48.456;-4.456;2023-07-22T10:23:49;11.50;;;10.00;;
74177;SDS011;62540;48.456;-4.456;2023-07-22T10:26:16;12.00;;;10.50;;
74177;SDS011;62540;48.456;-4.456;2023-07-22T10:28:43;10.00;;;9.00;;
74177;SDS011;62540;48.456;-4.456;2023-07-22T10:31:10;10.75;;;9.75;;
74177;SDS011;62540;48.456;-4.456;2023-07-22T10:33:35;11.75;;;11.75;;
74177;SDS011;62540;48.456;-4.456;2023-07-22T10:36:02;9.75;;;9.00;;
74177;SDS011;62540;48.456;-4.456;2023-07-22T10:38:29;9.75;;;9.75;;
74177;SDS011;62540;48.456;-4.456;2023-07-22T10:40:55;12.25;;;10.00;;
74177;SDS011;62540;48.456;-4.456;2023-07-22T10:43:29;10.75;;;10.00;;
74177;SDS011;62540;48.456;-4.456;2023-07-22T10:45:58;9.25;;;8.00;;
74177;SDS011;62540;48.456;-4.456;2023-07-22T10:48:33;11.25;;;9.75;;
74177;SDS011;62540;48.456;-4.456;2023-07-22T10:51:07;12.50;;;11.50;;
74177;SDS011;62540;48.456;-4.456;2023-07-22T10:53:43;10.75;;;9.25;;
74177;SDS011;62540;48.456;-4.456;2023-07-22T10:56:14;9.25;;;8.75;;
74177;SDS011;62540;48.456;-4.456;2023-07-22T11:11:52;13.25;;;10.00;;
74177;SDS011;62540;48.456;-4.456;2023-07-22T11:14:22;11.75;;;11.00;;
74177;SDS011;62540;48.456;-4.456;2023-07-22T11:17:15;8.75;;;8.25;;
74177;SDS011;62540;48.456;-4.456;2023-07-22T11:19:42;10.75;;;9.00;;
74177;SDS011;62540;48.456;-4.456;2023-07-22T11:22:08;8.75;;;8.00;;
74177;SDS011;62540;48.456;-4.456;2023-07-22T11:24:34;10.00;;;8.00;;
74177;SDS011;62540;48.456;-4.456;2023-07-22T11:27:02;11.25;;;10.50;;
74177;SDS011;62540;48.456;-4.456;2023-07-22T11:29:29;8.75;;;7.25;;
74177;SDS011;62540;48.456;-4.456;2023-07-22T11:31:55;7.00;;;7.00;;
74177;SDS011;62540;48.456;-4.456;2023-07-22T11:34:21;10.50;;;10.00;;
74177;SDS011;62540;48.456;-4.456;2023-07-22T11:36:48;9.00;;;7.00;;
74177;SDS011;62540;48.456;-4.456;2023-07-22T11:39:16;10.25;;;8.75;;
74177;SDS011;62540;48.456;-4.456;2023-07-22T11:41:43;7.50;;;6.25;;
74177;SDS011;62540;48.456;-4.456;2023-07-22T11:44:10;7.00;;;6.00;;
74177;SDS011;62540;48.456;-4.456;2023-07-22T11:46:46;4.50;;;4.50;;
74177;SDS011;62540;48.456;-4.456;2023-07-22T11:52:15;7.25;;;6.00;;
74177;SDS011;62540;48.456;-4.456;2023-07-22T11:54:43;6.25;;;4.75;;
74177;SDS011;62540;48.456;-4.456;2023-07-22T11:59:40;5.50;;;5.00;;
74177;SDS011;62540;48.456;-4.456;2023-07-22T12:02:12;8.25;;;6.75;;
74177;SDS011;62540;48.456;-4.456;2023-07-22T12:04:39;7.00;;;6.00;;
74177;SDS011;62540;48.456;-4.456;2023-07-22T12:07:04;6.75;;;6.25;;
74177;SDS011;62540;48.456;-4.456;2023-07-22T12:09:30;4.75;;;4.25;;
74177;SDS011;62540;48.456;-4.456;2023-07-22T12:11:57;6.00;;;5.75;;
74177;SDS011;62540;48.456;-4.456;2023-07-22T12:14:23;6.00;;;5.00;;
74177;SDS011;62540;48.456;-4.456;2023-07-22T12:16:52;9.75;;;8.00;;
74177;SDS011;62540;48.456;-4.456;2023-07-22T12:19:21;7.75;;;7.00;;
74177;SDS011;62540;48.456;-4.456;2023-07-22T12:21:47;7.25;;;7.00;;
74177;SDS011;62540;48.456;-4.456;2023-07-22T12:24:13;6.75;;;6.50;;
74177;SDS011;62540;48.456;-4.456;2023-07-22T12:26:39;8.00;;;7.75;;
74177;SDS011;62540;48.456;-4.456;2023-07-22T12:29:05;7.50;;;7.00;;
74177;SDS011;62540;48.456;-4.456;2023-07-22T12:31:30;8.50;;;8.00;;
74177;SDS011;62540;48.456;-4.456;2023-07-22T12:33:55;9.00;;;7.00;;
74177;SDS011;62540;48.456;-4.456;2023-07-22T12:36:21;8.50;;;7.25;;
74177;SDS011;62540;48.456;-4.456;2023-07-22T12:38:46;8.75;;;7.75;;
74177;SDS011;62540;48.456;-4.456;2023-07-22T12:41:11;5.50;;;5.00;;
74177;SDS011;62540;48.456;-4.456;2023-07-22T12:43:37;8.50;;;7.00;;
74177;SDS011;62540;48.456;-4.456;2023-07-22T12:46:02;6.50;;;6.00;;
74177;SDS011;62540;48.456;-4.456;2023-07-22T12:48:28;6.50;;;6.50;;
74177;SDS011;62540;48.456;-4.456;2023-07-22T12:50:53;6.50;;;6.25;;
74177;SDS011;62540;48.456;-4.456;2023-07-22T12:53:19;6.25;;;6.25;;
74177;SDS011;62540;48.456;-4.456;2023-07-22T12:55:44;4.75;;;4.50;;
74177;SDS011;62540;48.456;-4.456;2023-07-22T12:58:10;6.50;;;6.25;;
74177;SDS011;62540;48.456;-4.456;2023-07-22T13:00:35;5.50;;;5.00;;
74177;SDS011;62540;48.456;-4.456;2023-07-22T13:03:00;6.00;;;5.50;;
74177;SDS011;62540;48.456;-4.456;2023-07-22T13:05:26;4.25;;;4.00;;
74177;SDS011;62540;48.456;-4.456;2023-07-22T13:07:51;5.00;;;4.25;;
74177;SDS011;62540;48.456;-4.456;2023-07-22T13:10:18;5.75;;;5.00;;
74177;SDS011;62540;48.456;-4.456;2023-07-22T13:12:45;4.25;;;4.25;;
74177;SDS011;62540;48.456;-4.456;2023-07-22T13:15:10;4.75;;;4.75;;
74177;SDS011;62540;48.456;-4.456;2023-07-22T13:17:36;6.00;;;6.00;;
74177;SDS011;62540;48.456;-4.456;2023-07-22T13:20:02;5.75;;;4.25;;
74177;SDS011;62540;48.456;-4.456;2023-07-22T13:22:36;7.00;;;6.00;;
74177;SDS011;62540;48.456;-4.456;2023-07-22T13:25:02;6.50;;;5.25;;
74177;SDS011;62540;48.456;-4.456;2023-07-22T13:27:28;5.00;;;4.50;;
74177;SDS011;62540;48.456;-4.456;2023-07-22T13:29:54;6.00;;;5.25;;
74177;SDS011;62540;48.456;-4.456;2023-07-22T13:32:19;8.50;;;6.00;;
74177;SDS011;62540;48.456;-4.456;2023-07-22T13:34:44;4.25;;;3.50;;
74177;SDS011;62540;48.456;-4.456;2023-07-22T13:37:10;7.25;;;5.00;;
74177;SDS011;62540;48.456;-4.456;2023-07-22T13:39:35;5.75;;;5.50;;
74177;SDS011;62540;48.456;-4.456;2023-07-22T13:42:00;5.25;;;5.00;;
74177;SDS011;62540;48.456;-4.456;2023-07-22T13:44:26;3.50;;;2.00;;
74177;SDS011;62540;48.456;-4.456;2023-07-22T13:46:51;7.00;;;5.75;;
74177;SDS011;62540;48.456;-4.456;2023-07-22T13:49:16;5.00;;;3.50;;
74177;SDS011;62540;48.456;-4.456;2023-07-22T13:51:42;8.75;;;5.00;;
74177;SDS011;62540;48.456;-4.456;2023-07-22T13:54:08;7.00;;;6.00;;
74177;SDS011;62540;48.456;-4.456;2023-07-22T13:56:33;6.50;;;6.00;;
74177;SDS011;62540;48.456;-4.456;2023-07-22T13:58:59;6.00;;;6.00;;
74177;SDS011;62540;48.456;-4.456;2023-07-22T14:01:26;6.00;;;6.00;;
74177;SDS011;62540;48.456;-4.456;2023-07-22T14:03:51;7.50;;;6.00;;
74177;SDS011;62540;48.456;-4.456;2023-07-22T14:06:17;7.25;;;5.50;;
74177;SDS011;62540;48.456;-4.456;2023-07-22T14:08:42;7.50;;;6.00;;
74177;SDS011;62540;48.456;-4.456;2023-07-22T14:11:08;8.25;;;5.75;;
74177;SDS011;62540;48.456;-4.456;2023-07-22T14:13:33;7.25;;;5.75;;
74177;SDS011;62540;48.456;-4.456;2023-07-22T14:15:58;7.50;;;5.25;;
74177;SDS011;62540;48.456;-4.456;2023-07-22T14:18:24;8.50;;;6.75;;
74177;SDS011;62540;48.456;-4.456;2023-07-22T14:20:49;7.00;;;5.25;;
74177;SDS011;62540;48.456;-4.456;2023-07-22T14:23:15;5.75;;;5.75;;
74177;SDS011;62540;48.456;-4.456;2023-07-22T14:25:40;7.00;;;6.50;;
74177;SDS011;62540;48.456;-4.456;2023-07-22T14:28:06;8.25;;;7.50;;
74177;SDS011;62540;48.456;-4.456;2023-07-22T14:30:31;8.25;;;7.00;;
74177;SDS011;62540;48.456;-4.456;2023-07-22T14:32:57;6.00;;;6.00;;
74177;SDS011;62540;48.456;-4.456;2023-07-22T14:35:23;6.25;;;5.25;;
74177;SDS011;62540;48.456;-4.456;2023-07-22T14:37:49;6.50;;;6.00;;
74177;SDS011;62540;48.456;-4.456;2023-07-22T14:40:14;7.50;;;6.00;;
74177;SDS011;62540;48.456;-4.456;2023-07-22T14:42:40;11.25;;;7.25;;
74177;SDS011;62540;48.456;-4.456;2023-07-22T14:45:05;7.75;;;6.75;;
74177;SDS011;62540;48.456;-4.456;2023-07-22T14:47:32;2.25;;;0.50;;